Spring Creek, South Dakota
Current Conditions -  °F | °C
As of 2:52 PM on Thursday 18 Dec 2014 (Local Time) from KVTN Reporting Station
Haze Haze  
Wind Chill: -6°   Ceiling: Unl
Heat Index: -3°   Visibility: 6mi
Dew Point: -5°   Wind: 6mph
Humidity: 85%   Direction: 220°SW
Pressure: 30.04"   Gusts: NA
Location:  43.1381°N, 100.965°W
Report Text: KVTN 182052Z AUTO 22005KT 6SM BR SCT008 M03/M05 A3004 RMK AO2 SLP204 T10281050 56013
Loading
Personal Weather Stations






























Interactive Weather Map New forecast layout! Learn more

10-Day Weather Forecast

Advertisements
Track Severe Weather on mobile